Time;durP1;ratioP1;P1;durP2;ratioP2;P2;SDS_P1;SDS_P2;PMS_P1;PMS_P2;Temp;Humidity;BMP_temperature;BMP_pressure;BME280_temperature;BME280_humidity;BME280_pressure;Samples;Min_cycle;Max_cycle;Signal;HPM_P1;HPM_P2
2022/10/22 00:01:40;;;;;;;7.10;4.40;;;13.60;99.90;;;;;;5031025;28;20529;-48
2022/10/22 00:04:07;;;;;;;5.60;4.73;;;13.70;99.90;;;;;;5031173;28;20537;-48
2022/10/22 00:06:34;;;;;;;8.33;5.80;;;13.80;99.90;;;;;;5031259;28;20573;-50
2022/10/22 00:09:01;;;;;;;12.53;6.67;;;13.50;99.90;;;;;;5031251;28;20548;-49
2022/10/22 00:11:28;;;;;;;7.50;6.80;;;13.20;99.90;;;;;;5031323;28;20481;-49
2022/10/22 00:13:55;;;;;;;6.67;5.43;;;13.30;99.90;;;;;;5030629;28;20446;-48
2022/10/22 00:16:23;;;;;;;7.83;6.07;;;13.40;99.90;;;;;;5031307;28;20439;-48
2022/10/22 00:18:50;;;;;;;7.63;6.00;;;13.50;99.90;;;;;;5031152;28;20545;-48
2022/10/22 00:21:17;;;;;;;10.00;6.00;;;13.70;99.90;;;;;;5031497;28;20525;-48
2022/10/22 00:23:44;;;;;;;6.97;5.07;;;13.80;99.90;;;;;;5030806;28;20452;-48
2022/10/22 00:26:11;;;;;;;16.23;12.53;;;13.80;99.90;;;;;;5030931;28;20484;-47
2022/10/22 00:28:39;;;;;;;15.20;12.67;;;13.80;99.90;;;;;;5030911;28;20461;-48
2022/10/22 00:31:06;;;;;;;11.87;9.47;;;13.80;99.90;;;;;;5030974;28;20529;-49
2022/10/22 00:33:34;;;;;;;13.90;9.70;;;13.90;99.90;;;;;;5030677;28;20443;-48
2022/10/22 00:36:01;;;;;;;31.50;22.10;;;13.80;99.90;;;;;;5030967;28;21030;-48
2022/10/22 00:38:28;;;;;;;24.47;18.80;;;13.10;99.90;;;;;;5030789;28;20465;-49
2022/10/22 00:40:55;;;;;;;24.13;19.23;;;13.30;99.90;;;;;;5030832;28;20514;-47
2022/10/22 00:43:22;;;;;;;9.97;7.63;;;13.50;99.90;;;;;;5030608;28;20456;-49
2022/10/22 00:45:49;;;;;;;8.67;6.70;;;13.10;99.90;;;;;;5030752;28;20573;-47
2022/10/22 00:48:21;;;;;;;9.07;7.57;;;13.00;99.90;;;;;;5030947;28;20454;-47
2022/10/22 00:50:54;;;;;;;7.17;6.47;;;13.00;99.90;;;;;;5030558;28;20460;-47
2022/10/22 00:53:25;;;;;;;7.90;6.00;;;13.00;99.90;;;;;;5030568;28;20830;-49
2022/10/22 00:55:54;;;;;;;9.40;6.73;;;13.20;99.90;;;;;;5030942;28;20448;-48
2022/10/22 00:58:25;;;;;;;8.07;6.43;;;12.80;99.90;;;;;;5030749;28;20532;-47
2022/10/22 01:00:52;;;;;;;8.63;6.37;;;12.70;99.90;;;;;;5030641;28;20536;-48
2022/10/22 01:03:19;;;;;;;9.50;7.10;;;12.80;99.90;;;;;;5030271;28;20450;-48
2022/10/22 01:05:55;;;;;;;9.77;7.23;;;13.10;99.90;;;;;;5030912;28;20480;-48
2022/10/22 01:08:32;;;;;;;13.93;7.40;;;12.80;99.90;;;;;;5030695;28;20501;-47
2022/10/22 01:11:08;;;;;;;8.43;6.77;;;12.60;99.90;;;;;;5030987;28;20533;-47
2022/10/22 01:13:45;;;;;;;16.33;7.60;;;12.50;99.90;;;;;;5032349;28;20479;-48
2022/10/22 01:16:19;;;;;;;8.63;6.23;;;12.80;99.90;;;;;;5034282;28;20720;-47
2022/10/22 01:18:53;;;;;;;9.27;5.90;;;13.00;99.90;;;;;;5034153;28;20462;-48
2022/10/22 01:21:31;;;;;;;7.37;4.40;;;12.80;99.90;;;;;;5034293;28;20871;-48
2022/10/22 01:24:23;;;;;;;12.77;7.70;;;12.70;99.90;;;;;;5033676;28;20449;-48
2022/10/22 01:27:03;;;;;;;7.20;6.03;;;12.90;99.90;;;;;;5033785;28;20512;-48
2022/10/22 01:29:36;;;;;;;8.07;6.60;;;13.20;99.90;;;;;;5034133;28;20565;-47
2022/10/22 01:32:08;;;;;;;8.73;7.20;;;13.00;99.90;;;;;;5034004;28;20877;-47
2022/10/22 01:34:37;;;;;;;11.70;8.20;;;12.60;99.90;;;;;;5033833;28;20876;-47
2022/10/22 01:37:04;;;;;;;11.57;9.13;;;12.80;99.90;;;;;;5033925;28;20452;-47
2022/10/22 01:39:33;;;;;;;11.80;9.40;;;13.00;99.90;;;;;;5033493;28;20500;-48
2022/10/22 01:42:00;;;;;;;11.77;10.40;;;13.00;99.90;;;;;;5033690;28;20842;-47
2022/10/22 01:44:28;;;;;;;10.17;8.93;;;13.10;99.90;;;;;;5033737;28;20524;-48
2022/10/22 01:47:03;;;;;;;12.30;9.73;;;12.90;99.90;;;;;;5033766;28;20477;-47
2022/10/22 01:49:40;;;;;;;10.70;7.93;;;12.70;99.90;;;;;;5034295;28;21096;-48
2022/10/22 01:52:15;;;;;;;9.07;7.30;;;12.60;99.90;;;;;;5033395;28;20938;-47
2022/10/22 01:54:49;;;;;;;12.03;8.27;;;12.70;99.90;;;;;;5033314;28;20449;-47
2022/10/22 01:57:22;;;;;;;12.93;6.97;;;12.90;99.90;;;;;;5033355;28;20443;-48
2022/10/22 01:59:59;;;;;;;7.20;6.17;;;13.10;99.90;;;;;;5033538;28;20469;-48
2022/10/22 02:02:36;;;;;;;8.70;6.67;;;13.00;99.90;;;;;;5033599;28;20449;-49
2022/10/22 02:05:07;;;;;;;8.23;6.03;;;12.80;99.90;;;;;;5033044;28;20934;-48
2022/10/22 02:07:41;;;;;;;10.97;6.37;;;12.80;99.90;;;;;;5033165;28;20474;-48
2022/10/22 02:10:10;;;;;;;7.47;6.10;;;13.00;99.90;;;;;;5033271;28;20492;-48
2022/10/22 02:12:39;;;;;;;11.23;7.37;;;13.20;99.90;;;;;;5032873;28;20798;-48
2022/10/22 02:15:07;;;;;;;9.87;6.60;;;13.10;99.90;;;;;;5033155;28;20456;-48
2022/10/22 02:17:38;;;;;;;9.53;6.93;;;13.20;99.90;;;;;;5032967;28;20989;-50
2022/10/22 02:20:10;;;;;;;6.63;5.93;;;13.20;99.90;;;;;;5032653;28;20470;-48
2022/10/22 02:22:37;;;;;;;7.17;6.10;;;13.10;99.90;;;;;;5033056;28;20540;-50
2022/10/22 02:25:05;;;;;;;7.80;6.00;;;13.30;99.90;;;;;;5032467;28;20537;-48
2022/10/22 02:27:40;;;;;;;7.80;7.00;;;13.30;99.90;;;;;;5032719;28;20584;-48
2022/10/22 02:30:08;;;;;;;8.47;5.97;;;13.30;99.90;;;;;;5032699;28;20461;-47
2022/10/22 02:32:41;;;;;;;10.53;7.10;;;12.80;99.90;;;;;;5032751;28;20521;-49
2022/10/22 02:35:12;;;;;;;8.83;6.33;;;13.00;99.90;;;;;;5032691;28;20532;-48
2022/10/22 02:37:40;;;;;;;10.30;9.03;;;13.10;99.90;;;;;;5032482;28;20520;-46
2022/10/22 02:40:08;;;;;;;8.70;7.17;;;13.10;99.90;;;;;;5032736;28;20468;-47
2022/10/22 02:42:37;;;;;;;7.40;6.70;;;13.10;99.90;;;;;;5032515;28;21022;-48
2022/10/22 02:45:05;;;;;;;10.93;7.03;;;13.00;99.90;;;;;;5032306;28;20890;-49
2022/10/22 02:47:32;;;;;;;9.90;6.77;;;13.00;99.90;;;;;;5032444;28;20479;-47
2022/10/22 02:50:00;;;;;;;9.00;6.50;;;13.10;99.90;;;;;;5031616;28;20478;-49
2022/10/22 02:52:27;;;;;;;8.90;5.90;;;13.20;99.90;;;;;;5032147;28;20824;-48
2022/10/22 02:54:54;;;;;;;9.67;6.90;;;13.40;99.90;;;;;;5031908;28;20545;-48
2022/10/22 02:57:20;;;;;;;8.23;7.47;;;13.60;99.90;;;;;;5032480;28;20773;-47
2022/10/22 02:59:47;;;;;;;9.73;8.07;;;13.50;99.90;;;;;;5032501;28;20591;-47
2022/10/22 03:02:14;;;;;;;9.43;8.40;;;13.40;99.90;;;;;;5032266;28;20537;-48
2022/10/22 03:04:41;;;;;;;8.57;7.57;;;13.40;99.90;;;;;;5031835;28;20446;-47
2022/10/22 03:07:09;;;;;;;9.13;7.77;;;13.20;99.90;;;;;;5032049;28;20583;-48
2022/10/22 03:09:36;;;;;;;8.60;6.93;;;12.90;99.90;;;;;;5032012;28;20518;-48
2022/10/22 03:12:03;;;;;;;8.63;6.70;;;12.90;99.90;;;;;;5031891;28;20806;-47
2022/10/22 03:14:30;;;;;;;8.87;6.90;;;12.90;99.90;;;;;;5031806;28;20492;-50
2022/10/22 03:16:57;;;;;;;10.83;8.10;;;13.10;99.90;;;;;;5032144;28;20524;-47
2022/10/22 03:19:23;;;;;;;10.10;8.70;;;13.20;99.90;;;;;;5031738;28;20814;-48
2022/10/22 03:21:53;;;;;;;17.57;16.07;;;13.20;99.90;;;;;;5031762;28;20886;-48
2022/10/22 03:24:24;;;;;;;18.97;10.93;;;13.30;99.90;;;;;;5031776;28;20529;-47
2022/10/22 03:26:52;;;;;;;8.73;7.67;;;13.40;99.90;;;;;;5031995;28;20543;-48
2022/10/22 03:29:21;;;;;;;12.50;6.30;;;13.40;99.90;;;;;;5031514;28;20838;-49
2022/10/22 03:31:48;;;;;;;9.60;7.03;;;13.50;99.90;;;;;;5031745;28;20456;-49
2022/10/22 03:34:15;;;;;;;9.70;8.00;;;13.60;99.90;;;;;;5031420;28;20478;-49
2022/10/22 03:36:42;;;;;;;9.67;8.67;;;13.60;99.90;;;;;;5030671;28;20898;-47
2022/10/22 03:39:10;;;;;;;10.27;9.30;;;13.60;99.90;;;;;;5031576;28;20474;-48
2022/10/22 03:41:38;;;;;;;11.43;10.23;;;13.50;99.90;;;;;;5031389;28;20546;-48
2022/10/22 03:44:05;;;;;;;9.27;7.97;;;13.40;99.90;;;;;;5031224;28;20446;-48
2022/10/22 03:46:32;;;;;;;8.93;8.03;;;13.50;99.90;;;;;;5031555;28;20568;-48
2022/10/22 03:48:59;;;;;;;9.93;7.80;;;13.50;99.90;;;;;;5030866;28;20549;-48
2022/10/22 03:51:27;;;;;;;11.43;6.97;;;13.50;99.90;;;;;;5031635;28;20525;-50
2022/10/22 03:53:54;;;;;;;9.70;7.20;;;13.50;99.90;;;;;;5031330;28;20447;-50
2022/10/22 03:56:22;;;;;;;9.03;8.07;;;13.60;99.90;;;;;;5031872;28;20529;-47
2022/10/22 03:58:50;;;;;;;8.80;7.27;;;13.60;99.90;;;;;;5031108;28;20971;-47
2022/10/22 04:01:17;;;;;;;8.10;7.10;;;13.50;99.90;;;;;;5031216;28;20446;-49
2022/10/22 04:03:44;;;;;;;18.37;15.80;;;13.60;99.90;;;;;;5031184;28;20541;-49
2022/10/22 04:06:12;;;;;;;12.10;10.57;;;13.60;99.90;;;;;;5031565;28;20648;-47
2022/10/22 04:08:40;;;;;;;10.20;7.13;;;13.70;99.90;;;;;;5031146;28;20562;-51
2022/10/22 04:11:07;;;;;;;7.27;6.57;;;13.70;99.90;;;;;;5031464;28;20435;-48
2022/10/22 04:13:34;;;;;;;7.97;6.80;;;13.70;99.90;;;;;;5030813;28;20445;-50
2022/10/22 04:16:09;;;;;;;8.27;7.50;;;13.80;99.90;;;;;;5031207;28;20544;-48
2022/10/22 04:18:36;;;;;;;8.90;8.00;;;13.70;99.90;;;;;;5031283;28;20552;-47
2022/10/22 04:21:03;;;;;;;6.90;6.20;;;13.80;99.90;;;;;;5031186;28;20441;-48
2022/10/22 04:23:30;;;;;;;6.33;5.50;;;13.40;99.90;;;;;;5030850;28;20456;-48
2022/10/22 04:25:58;;;;;;;8.50;6.20;;;13.30;99.90;;;;;;5030913;28;20533;-48
2022/10/22 04:28:26;;;;;;;8.33;6.10;;;13.20;99.90;;;;;;5030909;28;20470;-48
2022/10/22 04:30:52;;;;;;;6.90;6.30;;;13.00;99.90;;;;;;5031112;28;20541;-48
2022/10/22 04:33:21;;;;;;;9.50;6.20;;;13.00;99.90;;;;;;5030460;28;20957;-48
2022/10/22 04:35:48;;;;;;;8.77;6.80;;;13.20;99.90;;;;;;5031242;28;20576;-48
2022/10/22 04:38:15;;;;;;;13.63;10.13;;;13.40;99.90;;;;;;5030899;28;20530;-48
2022/10/22 04:40:42;;;;;;;12.57;9.90;;;13.40;99.90;;;;;;5030924;28;21030;-48
2022/10/22 04:43:09;;;;;;;8.40;7.30;;;13.30;99.90;;;;;;5030479;28;20449;-47
2022/10/22 04:45:36;;;;;;;9.10;8.07;;;13.20;99.90;;;;;;5030825;28;20442;-48
2022/10/22 04:48:03;;;;;;;8.47;7.67;;;13.20;99.90;;;;;;5033718;28;20481;-47
2022/10/22 04:50:31;;;;;;;12.33;8.10;;;13.20;99.90;;;;;;5034007;28;21041;-48
2022/10/22 04:52:58;;;;;;;10.30;9.00;;;13.20;99.90;;;;;;5034683;28;20445;-47
2022/10/22 04:55:25;;;;;;;9.50;8.40;;;13.30;99.90;;;;;;5034862;28;20529;-48
2022/10/22 04:57:52;;;;;;;12.13;7.47;;;13.40;99.90;;;;;;5034712;28;20446;-47
2022/10/22 05:00:19;;;;;;;8.47;7.60;;;13.40;99.90;;;;;;5034553;28;20497;-49
2022/10/22 05:02:49;;;;;;;9.17;7.80;;;13.40;99.90;;;;;;5034370;28;20727;-49
2022/10/22 05:05:16;;;;;;;14.87;13.47;;;13.40;99.90;;;;;;5034214;28;20451;-48
2022/10/22 05:07:44;;;;;;;10.13;9.20;;;13.50;99.90;;;;;;5034284;28;20994;-48
2022/10/22 05:10:11;;;;;;;8.10;7.17;;;13.50;99.90;;;;;;5034457;28;20906;-50
2022/10/22 05:12:38;;;;;;;6.97;6.37;;;13.20;99.90;;;;;;5034171;28;20955;-48
2022/10/22 05:15:05;;;;;;;6.10;5.47;;;12.90;99.90;;;;;;5034167;28;20481;-47
2022/10/22 05:17:36;;;;;;;9.13;6.10;;;12.90;99.90;;;;;;5034186;28;20454;-48
2022/10/22 05:20:03;;;;;;;8.40;7.60;;;13.00;99.90;;;;;;5033966;28;20465;-48
2022/10/22 05:22:30;;;;;;;9.10;8.30;;;13.20;99.90;;;;;;5034073;28;20537;-49
2022/10/22 05:24:58;;;;;;;9.20;8.40;;;13.30;99.90;;;;;;5034061;28;20806;-49
2022/10/22 05:27:25;;;;;;;13.50;9.20;;;13.30;99.90;;;;;;5033676;28;20474;-49
2022/10/22 05:29:52;;;;;;;11.57;8.57;;;12.80;99.90;;;;;;5033949;28;20478;-49
2022/10/22 05:32:19;;;;;;;8.30;7.50;;;12.70;99.90;;;;;;5033562;28;20450;-48
2022/10/22 05:34:46;;;;;;;10.90;8.77;;;12.70;99.90;;;;;;5033961;28;20541;-48
2022/10/22 05:37:12;;;;;;;12.73;10.03;;;13.00;99.90;;;;;;5034152;28;20481;-48
2022/10/22 05:39:40;;;;;;;13.90;11.17;;;13.10;99.90;;;;;;5033612;28;20891;-48
2022/10/22 05:42:08;;;;;;;12.37;8.40;;;13.10;99.90;;;;;;5033735;28;20461;-50
2022/10/22 05:44:35;;;;;;;20.63;18.63;;;13.10;99.90;;;;;;5033952;28;20445;-52
2022/10/22 05:47:02;;;;;;;13.67;11.93;;;13.20;99.90;;;;;;5033837;28;20564;-47
2022/10/22 05:49:29;;;;;;;11.50;10.30;;;13.30;99.90;;;;;;5033113;28;21013;-48
2022/10/22 05:51:56;;;;;;;10.70;9.70;;;13.30;99.90;;;;;;5033464;28;20521;-50
2022/10/22 05:54:22;;;;;;;9.60;8.70;;;13.20;99.90;;;;;;5033283;28;20537;-48
2022/10/22 05:56:49;;;;;;;9.60;8.50;;;13.00;99.90;;;;;;5033461;28;20442;-48
2022/10/22 05:59:17;;;;;;;12.43;10.93;;;12.80;99.90;;;;;;5032401;28;20472;-49
2022/10/22 06:01:44;;;;;;;12.10;11.00;;;12.90;99.90;;;;;;5033676;28;20478;-50
2022/10/22 06:04:13;;;;;;;19.93;17.77;;;13.10;99.90;;;;;;5032840;28;20449;-48
2022/10/22 06:06:42;;;;;;;13.77;12.40;;;13.30;99.90;;;;;;5033246;28;20453;-48
2022/10/22 06:09:15;;;;;;;20.30;18.50;;;13.30;99.90;;;;;;5033199;28;20549;-48
2022/10/22 06:11:42;;;;;;;13.73;12.43;;;13.30;99.90;;;;;;5032933;28;20437;-48
2022/10/22 06:14:09;;;;;;;9.00;8.20;;;13.30;99.90;;;;;;5033031;28;20452;-51
2022/10/22 06:16:38;;;;;;;8.60;7.80;;;13.30;99.90;;;;;;5032918;28;20451;-48
2022/10/22 06:19:05;;;;;;;8.47;6.57;;;13.40;99.90;;;;;;5033270;28;20462;-48
2022/10/22 06:21:32;;;;;;;7.73;6.93;;;13.40;99.90;;;;;;5032986;28;20440;-48
2022/10/22 06:24:00;;;;;;;8.37;7.67;;;13.40;99.90;;;;;;5032709;28;20438;-49
2022/10/22 06:26:27;;;;;;;11.13;10.10;;;13.40;99.90;;;;;;5032915;28;20533;-47
2022/10/22 06:28:55;;;;;;;8.70;7.63;;;13.40;99.90;;;;;;5032527;28;20478;-49
2022/10/22 06:31:22;;;;;;;8.63;7.70;;;13.10;99.90;;;;;;5032818;28;20445;-51
2022/10/22 06:33:50;;;;;;;9.13;8.33;;;12.90;99.90;;;;;;5032647;28;20464;-47
2022/10/22 06:36:22;;;;;;;7.93;7.20;;;13.00;99.90;;;;;;5032845;28;20443;-48
2022/10/22 06:38:52;;;;;;;14.07;12.70;;;13.10;99.90;;;;;;5032609;28;20541;-51
2022/10/22 06:41:19;;;;;;;13.77;12.47;;;13.20;99.90;;;;;;5032680;28;20441;-48
2022/10/22 06:43:46;;;;;;;13.77;12.60;;;13.20;99.90;;;;;;5032306;28;20441;-48
2022/10/22 06:46:15;;;;;;;28.77;26.37;;;13.00;99.90;;;;;;5032657;28;20450;-49
2022/10/22 06:48:42;;;;;;;22.67;20.97;;;13.20;99.90;;;;;;5031916;28;20486;-49
2022/10/22 06:51:12;;;;;;;30.37;27.90;;;13.30;99.90;;;;;;5032462;28;20489;-48
2022/10/22 06:53:40;;;;;;;18.07;16.57;;;13.30;99.90;;;;;;5032390;28;20525;-48
2022/10/22 06:56:07;;;;;;;12.63;11.43;;;13.40;99.90;;;;;;5032457;28;20533;-49
2022/10/22 06:58:34;;;;;;;9.70;8.70;;;13.50;99.90;;;;;;5032035;28;20541;-50
2022/10/22 07:01:03;;;;;;;13.33;10.17;;;13.50;99.90;;;;;;5032110;28;20541;-48
2022/10/22 07:03:30;;;;;;;11.27;10.17;;;13.50;99.90;;;;;;5031825;28;20445;-48
2022/10/22 07:06:00;;;;;;;13.10;11.70;;;13.50;99.90;;;;;;5032106;28;21038;-48
2022/10/22 07:08:28;;;;;;;13.93;11.73;;;13.50;99.90;;;;;;5031951;28;20852;-48
2022/10/22 07:10:57;;;;;;;5.10;4.60;;;13.40;99.90;;;;;;5032121;28;20446;-49
2022/10/22 07:13:24;;;;;;;5.13;4.67;;;13.20;99.90;;;;;;5031722;28;20485;-48
2022/10/22 07:15:54;;;;;;;7.20;5.10;;;13.30;99.90;;;;;;5031931;28;20443;-50
2022/10/22 07:18:22;;;;;;;6.70;4.80;;;13.40;99.90;;;;;;5031957;28;22219;-48
2022/10/22 07:20:48;;;;;;;5.07;4.57;;;13.40;99.90;;;;;;5031891;28;20533;-48
2022/10/22 07:23:16;;;;;;;5.40;4.53;;;13.50;99.90;;;;;;5031655;28;20453;-49
2022/10/22 07:25:44;;;;;;;7.47;6.43;;;13.50;99.90;;;;;;5031675;28;21024;-48
2022/10/22 07:28:11;;;;;;;8.47;6.00;;;13.50;99.90;;;;;;5031137;28;21022;-48
2022/10/22 07:30:39;;;;;;;6.80;6.10;;;13.50;99.90;;;;;;5031678;28;20882;-48
2022/10/22 07:33:07;;;;;;;7.50;5.70;;;13.50;99.90;;;;;;5031464;28;20443;-48
2022/10/22 07:35:34;;;;;;;6.00;5.13;;;13.50;99.90;;;;;;5031542;28;20532;-48
2022/10/22 07:38:01;;;;;;;9.20;8.03;;;13.60;99.90;;;;;;5031476;28;20803;-47
2022/10/22 07:40:28;;;;;;;9.07;8.20;;;13.10;99.90;;;;;;5030653;28;20448;-48
2022/10/22 07:42:56;;;;;;;9.70;7.80;;;13.10;99.90;;;;;;5031230;28;20972;-49
2022/10/22 07:45:23;;;;;;;9.00;7.40;;;13.00;99.90;;;;;;5031411;28;20537;-49
2022/10/22 07:47:50;;;;;;;6.60;5.03;;;13.00;99.90;;;;;;5031520;28;20854;-49
2022/10/22 07:50:17;;;;;;;4.90;4.50;;;13.30;99.90;;;;;;5032265;28;21066;-48
2022/10/22 07:52:44;;;;;;;4.33;3.97;;;13.40;99.90;;;;;;5031306;28;20533;-48
2022/10/22 07:55:12;;;;;;;4.30;3.33;;;13.50;99.90;;;;;;5031038;28;20529;-48
2022/10/22 07:57:39;;;;;;;5.37;4.07;;;13.50;99.90;;;;;;5031963;28;20880;-48
2022/10/22 08:00:09;;;;;;;5.40;4.60;;;13.50;99.90;;;;;;5031289;28;20473;-51
2022/10/22 08:02:36;;;;;;;5.57;4.70;;;13.40;99.90;;;;;;5031584;28;20637;-49
2022/10/22 08:05:03;;;;;;;5.20;4.70;;;13.50;99.90;;;;;;5031145;28;20533;-48
2022/10/22 08:07:29;;;;;;;4.63;4.27;;;13.20;99.90;;;;;;5031198;28;21035;-47
2022/10/22 08:09:56;;;;;;;5.27;4.63;;;13.00;99.90;;;;;;5031098;28;20549;-48
2022/10/22 08:12:23;;;;;;;7.70;4.17;;;13.20;99.90;;;;;;5031390;28;20496;-48
2022/10/22 08:14:50;;;;;;;5.27;4.77;;;13.30;99.90;;;;;;5031235;28;20548;-48
2022/10/22 08:17:18;;;;;;;6.10;4.50;;;13.40;99.90;;;;;;5030954;28;20457;-49
2022/10/22 08:19:45;;;;;;;8.23;7.43;;;13.40;99.90;;;;;;5030961;28;20468;-50
2022/10/22 08:22:12;;;;;;;8.03;5.80;;;13.40;99.90;;;;;;5032855;28;20525;-47
2022/10/22 08:24:39;;;;;;;3.10;1.30;;;13.40;99.90;;;;;;5035082;28;20536;-48
2022/10/22 08:27:06;;;;;;;4.75;3.00;;;13.20;99.90;;;;;;5035005;28;20528;-49
2022/10/22 08:29:33;;;;;;;4.87;3.87;;;13.30;99.90;;;;;;5035107;28;20302;-47
2022/10/22 08:32:01;;;;;;;4.20;3.80;;;13.30;99.90;;;;;;5034995;28;20472;-49
2022/10/22 08:34:30;;;;;;;4.43;4.03;;;13.40;99.90;;;;;;5034715;28;20934;-49
2022/10/22 08:36:56;;;;;;;2.00;1.50;;;13.40;99.90;;;;;;5034959;28;20824;-47
2022/10/22 08:39:24;;;;;;;3.10;1.60;;;13.50;99.90;;;;;;5034976;28;20458;-48
2022/10/22 08:41:59;;;;;;;2.67;1.17;;;13.10;99.90;;;;;;5034954;28;20536;-50
2022/10/22 08:44:50;;;;;;;2.33;1.10;;;13.20;99.90;;;;;;5034813;28;20438;-48
2022/10/22 08:47:31;;;;;;;11.20;7.70;;;13.30;99.90;;;;;;5032367;28;20476;-47
2022/10/22 08:50:00;;;;;;;20.33;15.93;;;13.40;99.90;;;;;;5034224;28;20472;-47
2022/10/22 08:52:27;;;;;;;4.30;2.70;;;13.30;99.90;;;;;;5034905;28;20536;-49
2022/10/22 08:54:57;;;;;;;5.93;2.27;;;13.10;99.90;;;;;;5034336;28;20448;-48
2022/10/22 08:57:46;;;;;;;3.00;1.55;;;13.20;99.90;;;;;;5034726;28;20378;-49
2022/10/22 09:00:15;;;;;;;1.10;0.67;;;13.30;99.90;;;;;;5034627;28;20306;-48
2022/10/22 09:02:52;;;;;;;67.47;21.20;;;13.50;99.90;;;;;;5034350;28;20533;-48
2022/10/22 09:05:34;;;;;;;2.17;1.00;;;13.60;99.90;;;;;;5034221;28;20452;-47
2022/10/22 09:08:01;;;;;;;4.33;1.27;;;13.70;99.90;;;;;;5034886;28;20501;-45
2022/10/22 09:10:33;;;;;;;2.90;0.90;;;13.60;99.90;;;;;;5033311;28;20960;-49
2022/10/22 09:13:00;;;;;;;2.53;1.87;;;13.60;99.90;;;;;;5032407;28;20450;-50
2022/10/22 09:15:27;;;;;;;3.53;2.73;;;13.60;99.90;;;;;;5032806;28;20453;-50
2022/10/22 09:18:10;;;;;;;3.40;2.70;;;13.60;99.90;;;;;;5033208;28;20448;-49
2022/10/22 09:20:46;;;;;;;2.40;2.20;;;13.50;99.90;;;;;;5033122;28;20535;-49
2022/10/22 09:23:24;;;;;;;3.20;2.17;;;13.50;99.90;;;;;;5032237;28;20950;-50
2022/10/22 09:25:52;;;;;;;4.83;4.37;;;13.70;99.90;;;;;;5032892;28;20442;-49
2022/10/22 09:28:19;;;;;;;3.90;3.37;;;13.70;99.90;;;;;;5047764;28;20556;-49
2022/10/22 09:30:46;;;;;;;4.27;2.77;;;13.70;99.90;;;;;;5052994;28;20477;-50
2022/10/22 09:33:16;;;;;;;6.63;6.03;;;13.70;99.90;;;;;;5050950;28;20520;-51
2022/10/22 09:35:51;;;;;;;7.90;7.10;;;13.70;99.90;;;;;;5051261;28;20895;-49
2022/10/22 09:38:23;;;;;;;4.00;3.30;;;13.70;99.90;;;;;;5053550;28;20929;-49
2022/10/22 09:40:51;;;;;;;2.00;1.50;;;13.70;99.90;;;;;;5053809;28;20524;-49
2022/10/22 09:43:19;;;;;;;2.73;1.93;;;13.80;99.90;;;;;;5053506;28;20447;-50
2022/10/22 09:45:46;;;;;;;2.03;1.70;;;13.80;99.90;;;;;;5053713;28;20541;-49
2022/10/22 09:48:20;;;;;;;4.00;2.27;;;13.90;99.90;;;;;;5053923;28;20566;-49
2022/10/22 09:50:54;;;;;;;7.70;7.00;;;13.90;99.90;;;;;;5053629;28;20450;-49
2022/10/22 09:53:25;;;;;;;11.40;10.20;;;13.90;99.90;;;;;;5053348;28;20536;-49
2022/10/22 09:55:54;;;;;;;11.23;6.50;;;13.80;99.90;;;;;;5053384;28;20529;-49
2022/10/22 09:58:21;;;;;;;6.93;4.10;;;13.80;99.90;;;;;;5053332;28;20531;-50
2022/10/22 10:00:52;;;;;;;12.00;5.87;;;13.70;99.90;;;;;;5053374;28;20484;-49
2022/10/22 10:03:22;;;;;;;7.80;7.00;;;13.80;99.90;;;;;;5053032;28;20480;-49
2022/10/22 10:05:54;;;;;;;3.50;3.20;;;13.80;99.90;;;;;;5053446;28;20537;-51
2022/10/22 10:08:21;;;;;;;3.50;3.20;;;13.70;99.90;;;;;;5051870;28;20504;-49
2022/10/22 10:10:51;;;;;;;4.70;4.10;;;13.80;99.90;;;;;;5051648;28;20487;-49
2022/10/22 10:13:30;;;;;;;4.43;2.90;;;13.90;99.90;;;;;;5051212;28;20442;-50
2022/10/22 10:16:04;;;;;;;3.13;2.80;;;13.60;99.90;;;;;;5052266;28;20445;-51
2022/10/22 10:18:42;;;;;;;6.00;4.73;;;13.80;99.90;;;;;;5052070;28;21004;-49
2022/10/22 10:21:23;;;;;;;7.00;5.63;;;13.90;99.90;;;;;;5052564;28;20443;-49
2022/10/22 10:23:56;;;;;;;5.40;4.47;;;14.00;99.90;;;;;;5052232;28;20449;-49
2022/10/22 10:26:29;;;;;;;4.73;3.87;;;14.00;99.90;;;;;;5052566;28;20812;-52
2022/10/22 10:29:17;;;;;;;7.77;3.57;;;13.90;99.90;;;;;;5052127;28;20580;-49
2022/10/22 10:32:00;;;;;;;3.40;3.07;;;13.50;99.90;;;;;;5051461;28;20441;-49
2022/10/22 10:34:36;;;;;;;4.30;3.47;;;13.60;99.90;;;;;;5050969;28;20957;-49
2022/10/22 10:37:17;;;;;;;4.20;3.80;;;13.80;99.90;;;;;;5051135;28;20447;-49
2022/10/22 10:40:00;;;;;;;4.80;4.30;;;13.60;99.90;;;;;;5050998;28;20540;-49
2022/10/22 10:42:35;;;;;;;6.07;4.90;;;13.30;99.90;;;;;;5051380;28;20544;-50
2022/10/22 10:45:12;;;;;;;5.20;4.70;;;13.30;99.90;;;;;;5051219;28;20443;-51
2022/10/22 10:48:01;;;;;;;11.67;4.70;;;13.60;99.90;;;;;;5051181;28;20946;-50
2022/10/22 10:50:34;;;;;;;3.87;3.40;;;13.70;99.90;;;;;;5049707;28;20955;-52
2022/10/22 10:53:10;;;;;;;8.30;7.33;;;13.60;99.90;;;;;;5051808;28;20438;-49
2022/10/22 10:55:46;;;;;;;4.97;4.40;;;13.40;99.90;;;;;;5052374;28;20448;-51
2022/10/22 10:58:19;;;;;;;4.87;3.70;;;13.50;99.90;;;;;;5051100;28;20532;-49
2022/10/22 11:00:53;;;;;;;5.23;3.77;;;13.70;99.90;;;;;;5051830;28;21005;-49
2022/10/22 11:03:47;;;;;;;3.67;2.60;;;13.80;99.90;;;;;;5051429;28;20532;-49
2022/10/22 11:06:17;;;;;;;5.23;3.70;;;13.80;99.90;;;;;;5051874;28;20449;-49
2022/10/22 11:08:53;;;;;;;4.03;3.27;;;14.00;99.90;;;;;;5051558;28;20485;-49
2022/10/22 11:11:25;;;;;;;4.47;3.73;;;14.00;99.90;;;;;;5051608;28;20540;-50
2022/10/22 11:13:56;;;;;;;4.43;3.73;;;14.00;99.90;;;;;;5051704;28;20445;-49
2022/10/22 11:16:26;;;;;;;3.00;2.50;;;14.00;99.90;;;;;;5051097;28;21009;-50
2022/10/22 11:18:58;;;;;;;4.87;2.37;;;14.00;99.90;;;;;;5050664;28;20497;-50
2022/10/22 11:21:31;;;;;;;2.43;2.07;;;14.10;99.90;;;;;;5050778;28;20801;-51
2022/10/22 11:24:08;;;;;;;2.07;1.83;;;14.00;99.90;;;;;;5050221;28;20445;-49
2022/10/22 11:26:43;;;;;;;2.60;2.17;;;14.10;99.90;;;;;;5049940;28;20522;-49
2022/10/22 11:29:15;;;;;;;2.57;1.70;;;14.20;99.90;;;;;;5049982;28;20832;-49
2022/10/22 11:31:44;;;;;;;2.60;1.87;;;14.10;99.90;;;;;;5051112;28;20441;-49
2022/10/22 11:34:18;;;;;;;2.90;2.50;;;14.10;99.90;;;;;;5050476;28;20441;-50
2022/10/22 11:36:46;;;;;;;3.83;2.60;;;14.20;99.90;;;;;;5049982;28;20806;-49
2022/10/22 11:39:37;;;;;;;2.20;2.00;;;14.00;99.90;;;;;;5050004;28;20564;-51
2022/10/22 11:42:06;;;;;;;5.67;4.20;;;14.00;99.90;;;;;;5049901;28;20533;-51
2022/10/22 11:44:46;;;;;;;7.43;4.20;;;14.10;99.90;;;;;;5050051;28;20533;-49
2022/10/22 11:47:19;;;;;;;4.40;3.70;;;14.20;99.90;;;;;;5050126;28;20437;-51
2022/10/22 11:49:55;;;;;;;3.37;3.07;;;14.20;99.90;;;;;;5051142;28;20568;-49
2022/10/22 11:52:24;;;;;;;4.07;3.70;;;14.30;99.90;;;;;;5051656;28;20718;-48
2022/10/22 11:54:56;;;;;;;4.53;4.13;;;14.30;99.90;;;;;;5050649;28;20528;-49
2022/10/22 11:57:29;;;;;;;4.13;3.83;;;14.40;99.90;;;;;;5049187;28;20507;-49
2022/10/22 11:59:58;;;;;;;2.27;2.03;;;14.40;99.90;;;;;;5051422;28;20552;-49
2022/10/22 12:02:41;;;;;;;5.40;3.50;;;14.50;99.90;;;;;;5051140;28;20441;-50
2022/10/22 12:05:42;;;;;;;4.10;2.90;;;14.50;99.90;;;;;;5048746;28;20441;-49
2022/10/22 12:08:18;;;;;;;3.20;2.60;;;14.60;99.90;;;;;;5049909;28;20525;-50
2022/10/22 12:11:04;;;;;;;4.07;3.30;;;14.50;99.90;;;;;;5049552;28;21029;-49
2022/10/22 12:13:34;;;;;;;3.30;2.77;;;14.60;99.90;;;;;;5050023;28;20450;-52
2022/10/22 12:16:03;;;;;;;3.30;2.23;;;14.60;99.90;;;;;;5048757;28;20962;-49
2022/10/22 12:18:39;;;;;;;1.90;1.40;;;14.60;99.90;;;;;;5050170;28;20544;-50
2022/10/22 12:21:06;;;;;;;3.50;1.70;;;14.60;99.90;;;;;;5050098;28;20437;-50
2022/10/22 12:23:35;;;;;;;5.13;2.67;;;14.60;99.90;;;;;;5049983;28;20535;-49
2022/10/22 12:26:05;;;;;;;2.90;2.60;;;14.60;99.90;;;;;;5050938;28;20524;-49
2022/10/22 12:28:39;;;;;;;3.83;2.77;;;14.70;99.90;;;;;;5048544;28;20453;-50
2022/10/22 12:31:06;;;;;;;3.50;2.30;;;14.70;99.90;;;;;;5049336;28;20954;-50
2022/10/22 12:33:33;;;;;;;2.50;2.20;;;14.70;99.90;;;;;;5050395;28;20859;-50
2022/10/22 12:36:02;;;;;;;2.97;2.03;;;14.70;99.90;;;;;;5050999;28;20809;-50
2022/10/22 12:38:30;;;;;;;3.17;2.10;;;14.80;99.90;;;;;;5051105;28;20473;-49
2022/10/22 12:40:58;;;;;;;2.60;2.40;;;14.80;99.90;;;;;;5050475;28;20446;-49
2022/10/22 12:43:27;;;;;;;2.90;2.20;;;14.90;99.90;;;;;;5050491;28;20477;-48
2022/10/22 12:45:56;;;;;;;3.43;3.00;;;14.90;99.90;;;;;;5049881;28;20441;-49
2022/10/22 12:48:26;;;;;;;4.03;3.67;;;14.90;99.90;;;;;;5050771;28;20469;-48
2022/10/22 12:50:55;;;;;;;3.90;2.40;;;15.00;99.90;;;;;;5050886;28;20564;-48
2022/10/22 12:53:26;;;;;;;2.60;2.30;;;15.10;99.90;;;;;;5050641;28;20449;-48
2022/10/22 12:55:55;;;;;;;2.40;1.80;;;15.10;99.90;;;;;;5050779;28;20450;-48
2022/10/22 12:58:28;;;;;;;2.47;1.70;;;15.10;99.90;;;;;;5050561;28;20557;-50